Time;durP1;ratioP1;P1;durP2;ratioP2;P2;SDS_P1;SDS_P2;PMS_P1;PMS_P2;Temp;Humidity;BMP_temperature;BMP_pressure;BME280_temperature;BME280_humidity;BME280_pressure;Samples;Min_cycle;Max_cycle;Signal;HPM_P1;HPM_P2
2022/01/08 00:01:18;;;;;;;;;98.25;74.00;;;;;-2.53;81.96;102463.72;6183556;23;8790;-77
2022/01/08 00:04:14;;;;;;;;;96.25;74.50;;;;;-2.40;81.71;102460.25;6185732;23;8808;-78
2022/01/08 00:07:09;;;;;;;;;112.50;81.50;;;;;-2.36;81.38;102467.81;6185400;23;8797;-78
2022/01/08 00:10:06;;;;;;;;;100.25;76.50;;;;;-2.39;82.47;102468.19;6186705;23;8794;-77
2022/01/08 00:13:04;;;;;;;;;111.00;90.00;;;;;-2.50;83.27;102471.47;6166993;23;8794;-77
2022/01/08 00:16:00;;;;;;;;;156.50;112.00;;;;;-2.54;82.27;102467.50;6185468;23;8916;-77
2022/01/08 00:18:55;;;;;;;;;122.50;89.25;;;;;-2.43;81.65;102476.94;6185359;23;8820;-77
2022/01/08 00:21:51;;;;;;;;;99.00;76.00;;;;;-2.40;82.08;102479.22;6185215;23;9491;-78
2022/01/08 00:24:47;;;;;;;;;81.50;60.50;;;;;-2.43;82.71;102480.47;6184389;23;9525;-77
2022/01/08 00:27:42;;;;;;;;;78.50;60.50;;;;;-2.47;83.22;102481.06;6183757;23;9503;-78
2022/01/08 00:30:38;;;;;;;;;63.50;53.00;;;;;-2.53;82.62;102482.69;6185043;23;8825;-78
2022/01/08 00:33:33;;;;;;;;;66.25;56.50;;;;;-2.37;83.18;102476.97;6166788;23;8806;-78
2022/01/08 00:36:29;;;;;;;;;66.00;54.00;;;;;-2.42;81.88;102475.91;6185319;23;8789;-77
2022/01/08 00:39:25;;;;;;;;;60.50;51.75;;;;;-2.37;82.25;102470.72;6185498;23;8817;-77
2022/01/08 00:42:20;;;;;;;;;72.50;60.50;;;;;-2.41;82.01;102474.84;6184375;23;8852;-77
2022/01/08 00:45:16;;;;;;;;;101.25;76.00;;;;;-2.57;81.91;102482.28;6185226;23;8778;-77
2022/01/08 00:48:12;;;;;;;;;108.50;85.00;;;;;-2.61;82.62;102478.31;6185221;23;8778;-77
2022/01/08 00:51:07;;;;;;;;;108.25;81.75;;;;;-2.65;82.28;102470.78;6165209;23;8829;-77
2022/01/08 00:54:03;;;;;;;;;101.50;78.75;;;;;-2.96;83.47;102465.78;6185231;23;8789;-77
2022/01/08 00:56:58;;;;;;;;;106.25;79.00;;;;;-2.79;84.14;102459.03;6185050;23;8801;-77
2022/01/08 00:59:54;;;;;;;;;105.25;78.25;;;;;-2.88;83.91;102463.75;6185148;23;9536;-77
2022/01/08 01:02:50;;;;;;;;;108.75;78.25;;;;;-2.92;84.29;102467.06;6184994;23;8820;-77
2022/01/08 01:05:45;;;;;;;;;94.00;74.50;;;;;-2.85;84.22;102462.50;6185984;23;8923;-77
2022/01/08 01:08:41;;;;;;;;;101.25;76.75;;;;;-3.00;84.47;102462.63;6185029;23;8879;-77
2022/01/08 01:11:36;;;;;;;;;106.00;80.50;;;;;-2.93;84.44;102465.38;6184685;23;8805;-77
2022/01/08 01:14:32;;;;;;;;;102.00;73.25;;;;;-3.02;84.87;102467.41;6183410;23;8802;-77
2022/01/08 01:17:27;;;;;;;;;107.75;77.75;;;;;-3.17;84.42;102462.09;6184948;23;8923;-77
2022/01/08 01:20:23;;;;;;;;;103.75;84.25;;;;;-3.28;85.21;102459.94;6183392;23;9487;-77
2022/01/08 01:23:27;;;;;;;;;107.25;78.75;;;;;-3.05;85.97;102464.28;6178114;23;8884;-77
2022/01/08 01:26:26;;;;;;;;;115.25;88.50;;;;;-3.19;85.77;102461.47;6185840;23;8801;-77
2022/01/08 01:41:55;;;;;;;;;132.75;106.50;;;;;-3.17;86.58;102464.78;6185275;23;8837;-77
2022/01/08 01:48:05;;;;;;;;;123.25;98.50;;;;;-3.34;86.75;102470.69;6185652;23;8872;-77
2022/01/08 01:51:00;;;;;;;;;34.50;31.75;;;;;-3.36;85.96;102474.44;6202295;23;8813;-77
2022/01/08 01:53:56;;;;;;;;;123.75;102.25;;;;;-3.22;85.78;102461.00;6203466;23;8828;-78
2022/01/08 01:56:52;;;;;;;;;117.00;100.75;;;;;-3.24;85.95;102473.91;6183499;23;8816;-78
2022/01/08 01:59:48;;;;;;;;;121.50;101.00;;;;;-3.36;86.16;102465.50;6185499;23;9534;-77
2022/01/08 02:02:43;;;;;;;;;119.00;89.25;;;;;-3.46;86.84;102468.50;6185365;23;8826;-77
2022/01/08 02:05:39;;;;;;;;;115.75;92.25;;;;;-3.43;86.85;102472.72;6185428;23;8794;-77
2022/01/08 02:08:36;;;;;;;;;112.00;91.00;;;;;-3.29;86.40;102474.50;6185282;23;8814;-77
2022/01/08 02:11:31;;;;;;;;;125.75;96.00;;;;;-3.50;85.88;102474.50;6202133;23;8790;-77
2022/01/08 02:14:33;;;;;;;;;113.25;84.75;;;;;-3.48;86.22;102477.84;6185479;23;8872;-77
2022/01/08 02:17:28;;;;;;;;;120.25;98.75;;;;;-3.30;86.70;102477.38;6185803;23;8804;-77
2022/01/08 02:20:24;;;;;;;;;112.25;84.25;;;;;-3.49;86.26;102460.78;6183265;23;8896;-77
2022/01/08 02:23:20;;;;;;;;;116.75;88.00;;;;;-3.33;85.91;102465.09;6183269;23;8874;-77
2022/01/08 02:26:15;;;;;;;;;109.50;87.00;;;;;-3.38;85.54;102462.94;6183224;23;8794;-77
2022/01/08 02:29:15;;;;;;;;;110.00;85.50;;;;;-3.28;85.94;102467.22;6185718;23;9555;-77
2022/01/08 02:32:15;;;;;;;;;98.25;77.50;;;;;-3.52;85.79;102461.19;6185003;23;8801;-76
2022/01/08 02:35:10;;;;;;;;;93.50;70.00;;;;;-3.46;87.10;102457.69;6182930;23;8794;-77
2022/01/08 02:38:06;;;;;;;;;94.50;74.00;;;;;-3.53;85.80;102461.34;6183290;23;8805;-76
2022/01/08 02:41:04;;;;;;;;;92.75;72.75;;;;;-3.56;86.84;102462.59;6184940;23;8828;-76
2022/01/08 02:44:00;;;;;;;;;93.50;74.00;;;;;-3.58;87.27;102466.53;6185272;23;8809;-76
2022/01/08 02:46:55;;;;;;;;;91.00;72.00;;;;;-3.48;86.86;102464.31;6183280;23;8869;-76
2022/01/08 02:49:52;;;;;;;;;87.50;69.75;;;;;-3.66;86.50;102470.19;6201935;23;8876;-76
2022/01/08 02:52:48;;;;;;;;;99.75;78.25;;;;;-3.87;86.56;102468.31;6202667;23;8853;-76
2022/01/08 02:55:44;;;;;;;;;105.00;75.50;;;;;-3.90;86.81;102476.81;6184983;23;8789;-76
2022/01/08 02:58:39;;;;;;;;;101.75;77.00;;;;;-3.78;86.66;102474.44;6185217;23;8786;-76
2022/01/08 03:01:35;;;;;;;;;102.50;78.50;;;;;-3.78;86.53;102474.44;6184947;23;8814;-75
2022/01/08 03:04:31;;;;;;;;;107.25;83.25;;;;;-3.91;86.85;102480.56;6184992;23;8808;-75
2022/01/08 03:07:27;;;;;;;;;106.75;79.00;;;;;-3.85;87.06;102473.53;6185142;23;8913;-75
2022/01/08 03:10:23;;;;;;;;;117.50;93.00;;;;;-3.90;86.92;102487.63;6184926;23;8798;-75
2022/01/08 03:13:18;;;;;;;;;114.50;95.50;;;;;-4.05;87.16;102495.78;6185019;23;8964;-75
2022/01/08 03:16:14;;;;;;;;;125.75;93.75;;;;;-3.99;87.68;102486.06;6184730;23;8856;-75
2022/01/08 03:19:11;;;;;;;;;113.25;85.50;;;;;-3.95;87.73;102484.66;6184951;23;8847;-75
2022/01/08 03:22:06;;;;;;;;;99.00;72.75;;;;;-3.95;87.56;102487.38;6202497;23;8789;-75
2022/01/08 03:25:04;;;;;;;;;79.75;57.00;;;;;-4.05;87.11;102484.13;6182836;23;8814;-75
2022/01/08 03:28:00;;;;;;;;;97.75;71.25;;;;;-3.94;86.94;102486.31;6183081;23;8895;-75
2022/01/08 03:30:55;;;;;;;;;89.50;68.00;;;;;-4.04;87.13;102491.22;6183179;23;8809;-75
2022/01/08 03:33:53;;;;;;;;;97.25;71.75;;;;;-3.97;86.93;102492.97;6183726;23;8809;-75
2022/01/08 03:36:49;;;;;;;;;88.25;67.00;;;;;-3.97;86.80;102494.84;6164441;23;8833;-75
2022/01/08 03:39:44;;;;;;;;;92.25;71.75;;;;;-4.01;86.90;102502.47;6185888;23;8801;-74
2022/01/08 03:42:40;;;;;;;;;94.75;73.00;;;;;-3.98;86.91;102499.41;6185416;23;8794;-74
2022/01/08 03:45:36;;;;;;;;;81.50;67.00;;;;;-3.98;87.10;102498.56;6185764;23;8869;-74
2022/01/08 03:48:44;;;;;;;;;84.75;62.50;;;;;-4.04;87.15;102497.44;6185948;23;8802;-74
2022/01/08 03:51:40;;;;;;;;;88.75;68.75;;;;;-3.93;86.91;102506.91;6185415;23;8802;-74
2022/01/08 03:54:36;;;;;;;;;101.25;74.50;;;;;-4.07;86.95;102497.81;6185727;23;8826;-75
2022/01/08 03:57:32;;;;;;;;;104.50;82.50;;;;;-4.15;86.89;102513.31;6184954;23;8786;-74
2022/01/08 04:00:27;;;;;;;;;99.00;71.75;;;;;-3.90;86.33;102506.56;6185462;23;8849;-73
2022/01/08 04:03:23;;;;;;;;;94.50;69.00;;;;;-3.82;86.85;102508.31;6184998;23;8809;-74
2022/01/08 04:06:19;;;;;;;;;82.25;64.75;;;;;-4.05;87.33;102503.88;6185467;23;8915;-74
2022/01/08 04:09:14;;;;;;;;;83.00;68.00;;;;;-3.87;86.97;102508.03;6185549;23;8790;-74
2022/01/08 04:12:15;;;;;;;;;85.25;64.75;;;;;-3.97;86.10;102508.34;6165681;23;8895;-74
2022/01/08 04:18:19;;;;;;;;;96.25;75.00;;;;;-4.15;86.01;102518.72;6185164;23;8822;-74
2022/01/08 04:24:22;;;;;;;;;73.25;60.25;;;;;-4.02;85.24;102519.72;6185354;23;8790;-74
2022/01/08 04:27:17;;;;;;;;;82.50;60.25;;;;;-3.91;85.15;102521.09;6165727;23;8789;-73
2022/01/08 04:30:14;;;;;;;;;83.50;67.25;;;;;-3.97;84.99;102528.09;6184575;23;8790;-73
2022/01/08 04:33:10;;;;;;;;;102.75;77.75;;;;;-4.06;84.49;102544.63;6185474;23;8791;-74
2022/01/08 04:36:05;;;;;;;;;114.00;87.00;;;;;-4.00;85.68;102546.56;6185132;23;8790;-74
2022/01/08 04:39:02;;;;;;;;;120.50;99.00;;;;;-3.93;85.35;102542.06;6165344;23;8793;-74
2022/01/08 04:41:58;;;;;;;;;120.25;105.75;;;;;-4.08;85.22;102550.19;6185049;23;9510;-73
2022/01/08 04:44:54;;;;;;;;;115.00;93.00;;;;;-3.85;85.62;102538.41;6184495;23;8793;-74
2022/01/08 04:47:50;;;;;;;;;142.25;109.50;;;;;-3.81;84.72;102545.13;6185127;23;8880;-74
2022/01/08 04:50:45;;;;;;;;;109.50;80.00;;;;;-3.93;85.00;102550.19;6185137;23;8806;-73
2022/01/08 04:53:41;;;;;;;;;115.75;97.25;;;;;-4.29;84.89;102536.63;6184994;23;8805;-73
2022/01/08 04:56:37;;;;;;;;;110.00;78.75;;;;;-4.30;85.70;102543.88;6184979;23;8844;-73
2022/01/08 04:59:32;;;;;;;;;86.00;67.00;;;;;-4.03;84.66;102550.47;6185093;23;9425;-74
2022/01/08 05:02:28;;;;;;;;;107.50;83.25;;;;;-4.26;84.43;102550.59;6184732;23;8829;-74
2022/01/08 05:05:24;;;;;;;;;113.25;87.50;;;;;-4.15;85.34;102560.09;6185093;23;8805;-74
2022/01/08 05:08:19;;;;;;;;;112.25;82.00;;;;;-4.11;85.05;102561.41;6185114;23;8786;-74
2022/01/08 05:11:15;;;;;;;;;103.75;70.75;;;;;-4.12;85.42;102561.59;6185052;23;8797;-73
2022/01/08 05:14:11;;;;;;;;;110.25;83.00;;;;;-4.20;85.68;102562.53;6185161;23;8848;-74
2022/01/08 05:17:06;;;;;;;;;104.00;77.75;;;;;-4.16;84.98;102566.50;6185035;23;9580;-73
2022/01/08 05:20:11;;;;;;;;;99.75;76.00;;;;;-4.28;84.92;102568.88;6184054;23;8847;-74
2022/01/08 05:23:07;;;;;;;;;88.75;69.00;;;;;-4.38;84.68;102572.84;6184226;23;8802;-73
2022/01/08 05:26:03;;;;;;;;;106.50;83.25;;;;;-4.38;84.90;102570.97;6165091;23;8955;-73
2022/01/08 05:28:58;;;;;;;;;117.50;93.00;;;;;-4.35;85.44;102578.75;6184371;23;8809;-73
2022/01/08 05:31:54;;;;;;;;;131.25;106.25;;;;;-4.44;85.46;102587.13;6184785;23;8778;-72
2022/01/08 05:34:51;;;;;;;;;137.75;103.75;;;;;-4.24;85.35;102580.97;6185588;23;8884;-73
2022/01/08 05:37:46;;;;;;;;;111.00;86.50;;;;;-4.24;85.88;102586.38;6184632;23;8804;-72
2022/01/08 05:40:42;;;;;;;;;103.50;78.25;;;;;-4.22;84.75;102578.94;6164744;23;8892;-74
2022/01/08 05:43:37;;;;;;;;;114.75;87.25;;;;;-4.33;85.27;102587.47;6184634;23;8892;-73
2022/01/08 05:46:33;;;;;;;;;48.00;9.75;;;;;-4.13;84.67;102590.47;6184770;23;8855;-73
2022/01/08 05:49:29;;;;;;;;;161.50;114.50;;;;;-4.33;85.07;102586.66;6184414;23;8794;-74
2022/01/08 05:52:26;;;;;;;;;141.00;120.75;;;;;-4.31;85.07;102584.59;6184153;23;8793;-73
2022/01/08 05:55:22;;;;;;;;;141.50;123.75;;;;;-4.32;86.07;102580.22;6165542;23;8797;-72
2022/01/08 05:58:17;;;;;;;;;164.00;128.25;;;;;-4.29;85.93;102593.38;6183331;23;9541;-74
2022/01/08 06:01:13;;;;;;;;;156.75;119.25;;;;;-4.23;85.78;102590.75;6183885;23;8809;-74
2022/01/08 06:04:08;;;;;;;;;100.50;64.75;;;;;-4.21;84.78;102594.13;6184137;23;8813;-74
2022/01/08 06:07:04;;;;;;;;;119.25;105.75;;;;;-4.23;84.75;102595.31;6183996;23;8785;-73
2022/01/08 06:10:00;;;;;;;;;120.25;97.00;;;;;-4.22;85.13;102596.97;6181441;23;8798;-73
2022/01/08 06:12:55;;;;;;;;;118.25;91.50;;;;;-4.26;84.75;102601.94;6183907;23;8806;-73
2022/01/08 06:15:51;;;;;;;;;124.50;95.00;;;;;-4.07;85.67;102607.78;6183874;23;8816;-73
2022/01/08 06:18:46;;;;;;;;;94.25;70.75;;;;;-3.92;85.72;102614.88;6184340;23;8789;-70
2022/01/08 06:21:42;;;;;;;;;107.25;80.25;;;;;-3.94;86.53;102600.69;6184799;23;8860;-69
2022/01/08 06:24:38;;;;;;;;;107.75;79.50;;;;;-3.80;85.46;102611.69;6183583;23;8814;-70
2022/01/08 06:27:33;;;;;;;;;108.25;82.50;;;;;-3.75;84.38;102607.41;6184088;23;9530;-69
2022/01/08 06:30:29;;;;;;;;;117.00;92.25;;;;;-3.75;83.96;102607.41;6184005;23;9557;-69
2022/01/08 06:33:25;;;;;;;;;101.25;66.00;;;;;-3.60;84.10;102618.19;6183961;23;8793;-71
2022/01/08 06:36:23;;;;;;;;;143.00;113.75;;;;;-3.43;83.61;102624.22;6183895;23;8860;-70
2022/01/08 06:39:18;;;;;;;;;168.25;132.00;;;;;-3.35;83.55;102613.28;6183933;23;8825;-69
2022/01/08 06:42:14;;;;;;;;;182.25;137.25;;;;;-3.40;83.34;102613.00;6183838;23;8900;-71
2022/01/08 06:45:10;;;;;;;;;167.00;128.50;;;;;-3.36;83.07;102612.44;6183741;23;8808;-74
2022/01/08 06:48:06;;;;;;;;;166.25;133.25;;;;;-3.37;83.73;102616.19;6183736;23;8899;-73
2022/01/08 06:51:02;;;;;;;;;94.00;69.75;;;;;-3.11;82.59;102618.31;6183897;23;8798;-74
2022/01/08 06:53:58;;;;;;;;;79.25;58.50;;;;;-3.03;81.13;102619.22;6183591;23;8805;-74
2022/01/08 06:56:53;;;;;;;;;79.50;63.50;;;;;-2.92;80.63;102618.69;6184253;23;8809;-74
2022/01/08 06:59:49;;;;;;;;;37.67;34.33;;;;;-2.58;80.08;102616.06;6182874;23;8790;-75
2022/01/08 07:02:45;;;;;;;;;39.67;37.00;;;;;-2.53;79.61;102615.47;6183630;23;8879;-74
2022/01/08 07:05:40;;;;;;;;;29.67;29.67;;;;;-2.26;79.04;102621.94;6183463;23;9484;-76
2022/01/08 07:08:36;;;;;;;;;30.00;29.00;;;;;-2.22;78.61;102625.94;6182773;23;8908;-75
2022/01/08 07:11:32;;;;;;;;;30.67;30.33;;;;;-2.09;78.59;102612.44;6163161;23;8798;-76
2022/01/08 07:14:27;;;;;;;;;31.67;31.00;;;;;-1.98;78.16;102616.47;6183343;23;8793;-76
2022/01/08 07:17:23;;;;;;;;;24.00;23.00;;;;;-1.87;78.01;102626.75;6183246;23;8790;-75
2022/01/08 07:20:19;;;;;;;;;24.33;24.33;;;;;-1.59;76.89;102620.41;6183816;23;8896;-75
2022/01/08 07:23:15;;;;;;;;;27.33;22.67;;;;;-1.37;77.02;102618.41;6183327;23;8782;-75
2022/01/08 07:26:10;;;;;;;;;34.33;29.67;;;;;-1.36;77.46;102625.50;6183581;23;8830;-76
2022/01/08 07:29:06;;;;;;;;;24.00;21.33;;;;;-1.20;76.60;102617.81;6183545;23;8773;-75
2022/01/08 07:32:01;;;;;;;;;26.00;25.33;;;;;-0.98;76.51;102615.75;6183161;23;8809;-76
2022/01/08 07:35:00;;;;;;;;;35.33;31.67;;;;;-0.87;75.80;102614.28;6163168;23;8777;-76
2022/01/08 07:37:55;;;;;;;;;28.00;28.00;;;;;-0.77;75.87;102603.84;6163292;23;9416;-76
2022/01/08 07:40:23;;;;;;;;;12.00;12.00;;;;;-0.56;75.23;102605.53;6193100;23;8805;-76
2022/01/08 07:43:20;;;;;;;;;28.33;25.00;;;;;-0.50;74.50;102604.69;6183232;23;8848;-76
2022/01/08 07:46:15;;;;;;;;;35.33;29.33;;;;;-0.30;73.95;102608.22;6182472;23;8817;-75
2022/01/08 07:49:11;;;;;;;;;12.33;12.33;;;;;-0.12;73.14;102606.72;6183683;23;8801;-76
2022/01/08 07:52:06;;;;;;;;;10.67;10.67;;;;;0.15;72.15;102611.00;6183531;23;8793;-76
2022/01/08 07:55:03;;;;;;;;;18.33;18.33;;;;;0.26;71.58;102604.09;6183488;23;8798;-77
2022/01/08 07:57:58;;;;;;;;;14.67;14.00;;;;;0.15;69.94;102600.13;6183449;23;8834;-77
2022/01/08 08:00:54;;;;;;;;;26.33;16.67;;;;;0.24;68.91;102592.59;6163727;23;8801;-77
2022/01/08 08:03:49;;;;;;;;;20.67;19.00;;;;;0.62;68.96;102591.78;6164030;23;8786;-77
2022/01/08 08:06:49;;;;;;;;;7.00;7.00;;;;;0.85;68.40;102578.44;6183469;23;8795;-77
2022/01/08 08:09:44;;;;;;;;;10.67;10.67;;;;;1.12;66.02;102581.78;6183248;23;8778;-79
2022/01/08 08:12:41;;;;;;;;;13.00;13.00;;;;;1.36;65.20;102571.94;6182225;23;11465;-78
2022/01/08 08:15:36;;;;;;;;;10.50;10.00;;;;;1.23;63.69;102572.91;6183365;23;11523;-79
2022/01/08 08:18:32;;;;;;;;;10.00;8.50;;;;;1.07;63.90;102563.38;6184228;23;11586;-79
2022/01/08 08:21:27;;;;;;;;;7.00;7.00;;;;;1.25;61.39;102548.97;6162496;23;12364;-78
2022/01/08 08:24:23;;;;;;;;;7.00;6.50;;;;;1.20;62.08;102553.41;6182167;23;11589;-78
2022/01/08 08:27:19;;;;;;;;;4.00;4.00;;;;;1.64;57.05;102545.03;6164031;23;11468;-78
2022/01/08 08:30:18;;;;;;;;;5.25;5.25;;;;;1.84;57.55;102535.78;6164199;23;11517;-79
2022/01/08 08:33:14;;;;;;;;;6.00;6.00;;;;;1.51;58.76;102541.59;6183771;23;12148;-79
2022/01/08 08:36:10;;;;;;;;;5.00;5.00;;;;;1.46;58.60;102541.41;6183513;23;12158;-78
2022/01/08 08:39:05;;;;;;;;;7.25;7.25;;;;;1.83;59.62;102536.84;6163944;23;11511;-78
2022/01/08 08:42:03;;;;;;;;;10.75;10.25;;;;;1.92;59.47;102536.31;6183540;23;11533;-77
2022/01/08 08:44:58;;;;;;;;;7.50;7.50;;;;;1.99;57.87;102538.13;6163544;23;11502;-77
2022/01/08 08:47:56;;;;;;;;;8.75;8.75;;;;;1.72;57.60;102532.97;6182413;23;11536;-77
2022/01/08 08:50:58;;;;;;;;;12.00;12.00;;;;;1.97;58.44;102527.44;6184061;23;11535;-78
2022/01/08 08:53:54;;;;;;;;;5.00;5.00;;;;;2.23;56.40;102531.75;6164020;23;11568;-78
2022/01/08 08:56:49;;;;;;;;;9.00;9.00;;;;;2.13;56.03;102517.78;6184756;23;11543;-79
2022/01/08 08:59:45;;;;;;;;;4.50;4.50;;;;;2.06;54.63;102515.13;6185924;23;11479;-78
2022/01/08 09:02:42;;;;;;;;;4.50;4.50;;;;;1.99;54.58;102517.13;6184627;23;11456;-77
2022/01/08 09:05:37;;;;;;;;;13.25;11.00;;;;;2.39;53.93;102508.41;6184343;23;11573;-78
2022/01/08 09:08:33;;;;;;;;;6.00;6.00;;;;;2.75;52.56;102501.97;6183729;23;11479;-77
2022/01/08 09:11:29;;;;;;;;;4.00;4.00;;;;;2.71;52.13;102504.34;6183636;23;11464;-79
2022/01/08 09:14:26;;;;;;;;;4.00;4.00;;;;;2.71;51.35;102506.25;6165865;23;11427;-72
2022/01/08 09:17:23;;;;;;;;;3.00;3.00;;;;;2.40;50.53;102499.16;6184924;23;11552;-70
2022/01/08 09:20:19;;;;;;;;;1.00;1.00;;;;;2.46;50.99;102487.31;6165230;23;11565;-73
2022/01/08 09:23:15;;;;;;;;;2.00;2.00;;;;;2.45;51.66;102489.22;6184677;23;11559;-73
2022/01/08 09:26:11;;;;;;;;;4.00;4.00;;;;;2.23;51.66;102479.88;6184620;23;11446;-73
2022/01/08 09:29:07;;;;;;;;;6.50;6.50;;;;;2.45;51.79;102485.63;6184866;23;11455;-73
2022/01/08 09:32:07;;;;;;;;;2.00;1.25;;;;;2.26;51.05;102473.94;6164994;23;11482;-73
2022/01/08 09:35:05;;;;;;;;;2.75;2.75;;;;;2.04;51.44;102468.13;6184107;23;12074;-72
2022/01/08 09:38:01;;;;;;;;;4.00;4.00;;;;;2.49;53.05;102462.25;6184612;23;11440;-73
2022/01/08 09:40:56;;;;;;;;;2.50;2.50;;;;;2.48;50.23;102453.22;6185002;23;11494;-72
2022/01/08 09:43:52;;;;;;;;;0.00;0.00;;;;;2.31;50.88;102457.69;6184810;23;11443;-72
2022/01/08 09:46:48;;;;;;;;;2.50;1.50;;;;;2.52;48.67;102456.31;6184593;23;12227;-71
2022/01/08 09:49:44;;;;;;;;;3.50;3.50;;;;;2.97;48.89;102464.81;6183619;23;11443;-71
2022/01/08 09:52:39;;;;;;;;;4.75;4.75;;;;;3.05;49.41;102444.50;6184503;23;11486;-71
2022/01/08 09:55:35;;;;;;;;;8.50;8.50;;;;;3.51;49.13;102429.09;6184393;23;12281;-71
2022/01/08 09:58:32;;;;;;;;;5.75;5.75;;;;;3.43;47.97;102429.47;6184246;23;11497;-76
2022/01/08 10:01:32;;;;;;;;;4.00;4.00;;;;;3.40;48.75;102419.03;6184292;23;11468;-76
2022/01/08 10:04:38;;;;;;;;;5.00;5.00;;;;;3.87;49.91;102419.72;6184088;23;11020;-74
2022/01/08 10:07:34;;;;;;;;;5.25;5.25;;;;;4.16;48.57;102413.16;6181545;23;11481;-76
2022/01/08 10:10:29;;;;;;;;;10.25;10.25;;;;;3.99;48.51;102411.44;6181941;23;11472;-76
2022/01/08 10:13:32;;;;;;;;;5.00;5.00;;;;;3.96;47.18;102412.78;6163869;23;11482;-75
2022/01/08 10:19:44;;;;;;;;;8.50;7.50;;;;;4.09;48.33;102409.75;6183796;23;11549;-76
2022/01/08 10:22:39;;;;;;;;;1.50;1.50;;;;;3.96;46.92;102403.75;6184779;23;11617;-77
2022/01/08 10:25:36;;;;;;;;;5.50;5.25;;;;;3.73;46.72;102410.13;6182602;23;11440;-77
2022/01/08 10:28:32;;;;;;;;;5.00;5.00;;;;;3.77;46.22;102392.16;6161640;23;12259;-76
2022/01/08 10:31:33;;;;;;;;;4.00;4.00;;;;;3.77;46.89;102379.31;6183522;23;11473;-78
2022/01/08 10:34:30;;;;;;;;;2.00;2.00;;;;;3.79;47.47;102381.78;6164068;23;11527;-76
2022/01/08 10:37:26;;;;;;;;;2.00;2.00;;;;;3.39;47.87;102374.44;6163921;23;12154;-77
2022/01/08 10:40:34;;;;;;;;;4.50;4.50;;;;;3.60;47.93;102371.06;6183439;23;11469;-76
2022/01/08 10:43:32;;;;;;;;;4.25;4.25;;;;;3.47;46.73;102384.16;6183543;23;11461;-77
2022/01/08 10:46:27;;;;;;;;;1.50;1.50;;;;;3.47;48.21;102379.53;6183608;23;11529;-77
2022/01/08 10:49:32;;;;;;;;;7.00;7.00;;;;;3.40;47.37;102378.00;6163871;23;11413;-81
2022/01/08 10:52:29;;;;;;;;;11.00;9.00;;;;;3.18;47.84;102377.81;6183909;23;11512;-78
2022/01/08 10:55:33;;;;;;;;;12.50;4.25;;;;;3.08;46.67;102367.50;6183471;23;11473;-78
2022/01/08 10:58:42;;;;;;;;;3.00;3.00;;;;;2.80;47.29;102368.22;6183674;23;12243;-75
2022/01/08 11:01:59;;;;;;;;;1.00;1.00;;;;;3.08;49.19;102362.00;6183422;23;11559;-77
2022/01/08 11:04:55;;;;;;;;;11.00;4.00;;;;;2.84;49.01;102363.09;6182840;23;11555;-76
2022/01/08 11:07:51;;;;;;;;;1.00;1.00;;;;;2.70;48.75;102359.78;6183590;23;11499;-76
2022/01/08 11:10:46;;;;;;;;;1.50;1.50;;;;;2.70;50.02;102354.31;6183343;23;12203;-77
2022/01/08 11:13:15;;;;;;;;;1.00;1.00;;;;;2.85;49.65;102360.13;6184570;23;11451;-79
2022/01/08 11:16:11;;;;;;;;;1.25;1.00;;;;;2.92;52.26;102351.81;6182358;23;11470;-78
2022/01/08 11:19:07;;;;;;;;;2.00;2.00;;;;;3.14;50.83;102352.81;6163706;23;11439;-80
2022/01/08 11:22:09;;;;;;;;;1.50;1.50;;;;;2.70;49.52;102354.31;6182111;23;11475;-78
2022/01/08 11:25:07;;;;;;;;;6.00;6.00;;;;;3.14;52.00;102354.72;6182818;23;11452;-79
2022/01/08 11:28:17;;;;;;;;;3.50;3.50;;;;;3.19;51.49;102357.59;6183082;23;11465;-78
2022/01/08 11:31:15;;;;;;;;;4.00;4.00;;;;;2.87;50.90;102354.44;6183283;23;11459;-77
2022/01/08 11:34:12;;;;;;;;;2.00;2.00;;;;;3.20;49.26;102354.59;6183639;23;11448;-77
2022/01/08 11:37:08;;;;;;;;;2.00;2.00;;;;;3.48;50.04;102344.78;6183494;23;11435;-79
2022/01/08 11:40:07;;;;;;;;;0.00;0.00;;;;;3.84;47.72;102352.63;6183540;23;11432;-80
2022/01/08 11:43:05;;;;;;;;;1.50;1.50;;;;;3.76;47.68;102349.44;6182204;23;11485;-78
2022/01/08 11:46:05;;;;;;;;;2.00;2.00;;;;;3.66;46.98;102346.50;6182861;23;11502;-78
2022/01/08 11:49:02;;;;;;;;;2.50;2.50;;;;;3.85;47.85;102334.28;6182710;23;11534;-77
2022/01/08 11:52:21;;;;;;;;;1.75;1.75;;;;;4.25;47.07;102336.91;6163209;23;11515;-79
2022/01/08 11:55:34;;;;;;;;;3.00;2.00;;;;;4.31;46.56;102343.31;6183309;23;11543;-79
2022/01/08 11:58:32;;;;;;;;;1.00;1.00;;;;;4.32;47.07;102343.06;6184616;23;11474;-81
2022/01/08 12:01:27;;;;;;;;;2.00;2.00;;;;;4.31;47.33;102340.56;6186045;23;12205;-82
2022/01/08 12:04:26;;;;;;;;;4.00;4.00;;;;;4.14;47.16;102344.13;6187061;23;11461;-83
2022/01/08 12:07:39;;;;;;;;;2.50;2.50;;;;;4.14;47.23;102343.28;6185830;23;11440;-81
2022/01/08 12:10:11;;;;;;;;;2.00;2.00;;;;;3.59;46.61;102333.78;6194398;23;12158;-81
2022/01/08 12:13:06;;;;;;;;;1.75;1.75;;;;;3.00;46.80;102344.09;6187288;23;11479;-82
2022/01/08 12:16:02;;;;;;;;;4.75;4.75;;;;;3.40;48.50;102337.81;6185901;23;11480;-81
2022/01/08 12:18:58;;;;;;;;;4.00;4.00;;;;;3.17;48.77;102332.41;6189798;23;11458;-85
2022/01/08 12:21:54;;;;;;;;;2.50;2.50;;;;;3.46;47.41;102328.63;6175109;23;11467;-82
2022/01/08 12:25:00;;;;;;;;;0.00;0.00;;;;;2.94;47.91;102328.63;6191275;23;11481;-81
2022/01/08 12:27:57;;;;;;;;;0.00;0.00;;;;;2.59;48.40;102330.53;6167484;23;10882;-81
2022/01/08 12:30:52;;;;;;;;;7.00;4.00;;;;;2.54;49.17;102334.00;6185425;23;11654;-78
2022/01/08 12:34:44;;;;;;;;;2.00;2.00;;;;;2.61;50.26;102321.06;6184520;23;11484;-79
2022/01/08 12:37:44;;;;;;;;;11.00;11.00;;;;;2.41;49.93;102324.13;6185047;23;11447;-83
2022/01/08 12:40:45;;;;;;;;;2.00;2.00;;;;;2.17;49.88;102320.56;6186659;23;11528;-87
2022/01/08 12:43:40;;;;;;;;;13.00;11.75;;;;;2.13;51.54;102321.25;6183884;23;11546;-85
2022/01/08 12:46:39;;;;;;;;;11.50;11.50;;;;;1.85;52.25;102302.81;6184663;23;11491;-79
2022/01/08 12:49:34;;;;;;;;;5.00;5.00;;;;;1.86;52.25;102309.94;6183657;23;11469;-80
2022/01/08 12:52:30;;;;;;;;;2.00;2.00;;;;;1.72;54.45;102301.09;6184002;23;11550;-80
2022/01/08 12:55:26;;;;;;;;;2.50;2.50;;;;;1.66;53.75;102300.13;6163140;23;11450;-78
2022/01/08 12:58:32;;;;;;;;;6.50;6.50;;;;;1.69;54.81;102293.41;6181790;23;11459;-78
2022/01/08 13:01:30;;;;;;;;;5.00;5.00;;;;;1.54;55.01;102295.72;6183451;23;11476;-79
2022/01/08 13:04:26;;;;;;;;;1.00;1.00;;;;;1.53;55.90;102294.03;6183334;23;11544;-77
2022/01/08 13:07:22;;;;;;;;;10.25;10.25;;;;;1.52;55.59;102284.19;6182640;23;12251;-78
2022/01/08 13:10:21;;;;;;;;;11.75;7.75;;;;;1.31;56.17;102291.81;6182723;23;11480;-79
2022/01/08 13:13:20;;;;;;;;;5.50;5.50;;;;;1.31;56.14;102294.56;6163026;23;11502;-80
2022/01/08 13:16:22;;;;;;;;;2.00;2.00;;;;;1.39;57.88;102290.69;6183931;23;11588;-80
2022/01/08 13:19:01;;;;;;;;;13.67;13.67;;;;;1.35;58.43;102290.28;6193070;23;11451;-83
2022/01/08 13:22:02;;;;;;;;;7.33;7.33;;;;;1.33;60.12;102284.25;6182697;23;11515;-80
2022/01/08 13:24:57;;;;;;;;;11.25;11.25;;;;;1.19;59.11;102277.31;6164979;23;11483;-82
2022/01/08 13:27:53;;;;;;;;;13.67;13.67;;;;;1.21;59.16;102269.72;6183634;23;11490;-77
2022/01/08 13:30:50;;;;;;;;;15.33;13.33;;;;;1.15;59.07;102272.53;6183922;23;11530;-79
2022/01/08 13:33:55;;;;;;;;;13.00;13.00;;;;;1.05;59.57;102263.00;6184234;23;11617;-78
2022/01/08 13:37:00;;;;;;;;;15.67;14.67;;;;;0.99;60.26;102272.09;6164350;23;11497;-77
2022/01/08 13:40:02;;;;;;;;;9.33;9.33;;;;;1.05;60.47;102263.00;6184580;23;9558;-79
2022/01/08 13:42:35;;;;;;;;;11.00;11.00;;;;;1.00;60.47;102262.88;6194257;23;11461;-77
2022/01/08 13:45:31;;;;;;;;;18.33;18.33;;;;;0.94;60.19;102260.22;6183912;23;11503;-77
2022/01/08 13:48:26;;;;;;;;;8.00;8.00;;;;;0.75;61.54;102262.94;6184677;23;8786;-78
2022/01/08 13:51:25;;;;;;;;;8.33;8.33;;;;;0.85;61.10;102262.44;6183421;23;8802;-77
2022/01/08 13:54:33;;;;;;;;;26.67;25.33;;;;;0.77;61.60;102260.03;6164462;23;11502;-77
2022/01/08 13:57:34;;;;;;;;;19.33;19.00;;;;;0.61;62.86;102258.69;6164360;23;8825;-78
2022/01/08 14:00:33;;;;;;;;;17.33;17.33;;;;;0.62;62.66;102254.94;6166058;23;11489;-79